Time;durP1;ratioP1;P1;durP2;ratioP2;P2;SDS_P1;SDS_P2;PMS_P1;PMS_P2;Temp;Humidity;BMP_temperature;BMP_pressure;BME280_temperature;BME280_humidity;BME280_pressure;Samples;Min_cycle;Max_cycle;Signal;HPM_P1;HPM_P2
2022/10/10 00:01:53;;;;;;;1.05;0.43;;;;;;;;;;5082618;28;20044;-84
2022/10/10 00:04:22;;;;;;;8.68;0.75;;;;;;;;;;5074534;28;20632;-84
2022/10/10 00:06:51;;;;;;;0.65;0.60;;;;;;;;;;5080690;28;20044;-84
2022/10/10 00:09:19;;;;;;;0.57;0.40;;;;;;;;;;5073747;28;20044;-84
2022/10/10 00:11:47;;;;;;;1.73;0.63;;;;;;;;;;5079241;28;20047;-84
2022/10/10 00:14:16;;;;;;;0.82;0.70;;;;;;;;;;5080576;28;20044;-84
2022/10/10 00:16:44;;;;;;;1.17;0.65;;;;;;;;;;5082350;28;20054;-84
2022/10/10 00:19:12;;;;;;;1.48;0.40;;;;;;;;;;5089175;28;20044;-84
2022/10/10 00:21:42;;;;;;;2.10;1.23;;;;;;;;;;5078509;28;20048;-84
2022/10/10 00:24:10;;;;;;;0.73;0.70;;;;;;;;;;5083246;28;20044;-83
2022/10/10 00:26:38;;;;;;;0.45;0.45;;;;;;;;;;5080966;28;20051;-84
2022/10/10 00:29:07;;;;;;;0.50;0.50;;;;;;;;;;5082460;28;20055;-84
2022/10/10 00:31:35;;;;;;;1.85;0.98;;;;;;;;;;5075138;28;21510;-84
2022/10/10 00:34:03;;;;;;;3.03;0.98;;;;;;;;;;5079419;28;20051;-83
2022/10/10 00:36:32;;;;;;;0.85;0.52;;;;;;;;;;5084417;28;20051;-84
2022/10/10 00:39:01;;;;;;;0.40;0.30;;;;;;;;;;5085511;28;20044;-83
2022/10/10 00:41:30;;;;;;;0.43;0.43;;;;;;;;;;5083844;28;20408;-83
2022/10/10 00:44:02;;;;;;;0.93;0.75;;;;;;;;;;5077996;28;20048;-83
2022/10/10 00:46:30;;;;;;;3.83;0.82;;;;;;;;;;5080447;28;20040;-84
2022/10/10 00:48:59;;;;;;;5.13;0.93;;;;;;;;;;5090846;28;20055;-84
2022/10/10 00:51:27;;;;;;;2.80;1.30;;;;;;;;;;5081528;28;20495;-84
2022/10/10 00:53:57;;;;;;;5.43;1.02;;;;;;;;;;5083436;28;20051;-83
2022/10/10 00:56:28;;;;;;;1.90;0.75;;;;;;;;;;5083760;28;20649;-84
2022/10/10 00:58:58;;;;;;;3.85;0.80;;;;;;;;;;5082520;28;20044;-84
2022/10/10 01:01:27;;;;;;;0.43;0.43;;;;;;;;;;5080671;28;20036;-84
2022/10/10 01:03:57;;;;;;;5.70;0.93;;;;;;;;;;5076577;28;20052;-84
2022/10/10 01:06:26;;;;;;;3.08;1.00;;;;;;;;;;5081985;28;20052;-84
2022/10/10 01:08:55;;;;;;;1.95;0.70;;;;;;;;;;5077735;28;20048;-84
2022/10/10 01:11:35;;;;;;;1.67;0.98;;;;;;;;;;5083293;28;20055;-84
2022/10/10 01:14:09;;;;;;;2.20;1.27;;;;;;;;;;5084182;28;20046;-84
2022/10/10 01:16:41;;;;;;;0.98;0.98;;;;;;;;;;5082250;28;20055;-83
2022/10/10 01:19:16;;;;;;;2.03;1.45;;;;;;;;;;5080596;28;20507;-84
2022/10/10 01:21:51;;;;;;;2.17;1.02;;;;;;;;;;5076888;28;20054;-84
2022/10/10 01:24:37;;;;;;;0.60;0.47;;;;;;;;;;5073434;28;20492;-84
2022/10/10 01:27:16;;;;;;;0.77;0.77;;;;;;;;;;5076241;28;20044;-83
2022/10/10 01:29:49;;;;;;;0.63;0.60;;;;;;;;;;5080545;28;20052;-83
2022/10/10 01:32:18;;;;;;;1.08;0.80;;;;;;;;;;5089138;28;20059;-84
2022/10/10 01:34:52;;;;;;;6.32;1.27;;;;;;;;;;5084994;28;20103;-84
2022/10/10 01:37:21;;;;;;;2.38;0.95;;;;;;;;;;5076776;28;20493;-83
2022/10/10 01:39:53;;;;;;;1.20;0.65;;;;;;;;;;5077852;28;20044;-83
2022/10/10 01:42:23;;;;;;;3.33;1.42;;;;;;;;;;5074015;28;20048;-83
2022/10/10 01:44:53;;;;;;;2.13;1.02;;;;;;;;;;5077212;28;20048;-83
2022/10/10 01:47:22;;;;;;;2.42;0.90;;;;;;;;;;5075585;28;20057;-84
2022/10/10 01:49:52;;;;;;;13.05;1.00;;;;;;;;;;5082291;28;20044;-83
2022/10/10 01:52:27;;;;;;;3.30;1.20;;;;;;;;;;5071636;28;20049;-83
2022/10/10 01:55:02;;;;;;;5.35;1.90;;;;;;;;;;5075533;28;20139;-84
2022/10/10 01:57:35;;;;;;;4.88;1.25;;;;;;;;;;5072022;28;20497;-84
2022/10/10 02:00:07;;;;;;;2.42;0.98;;;;;;;;;;5080423;28;20044;-84
2022/10/10 02:02:40;;;;;;;4.00;1.77;;;;;;;;;;5079799;28;20456;-84
2022/10/10 02:05:11;;;;;;;2.28;1.48;;;;;;;;;;5089718;28;20056;-84
2022/10/10 02:07:42;;;;;;;3.00;1.40;;;;;;;;;;5075806;28;20122;-83
2022/10/10 02:10:12;;;;;;;1.35;1.17;;;;;;;;;;5081461;28;20084;-84
2022/10/10 02:12:40;;;;;;;1.38;0.93;;;;;;;;;;5073091;28;20059;-84
2022/10/10 02:15:13;;;;;;;3.08;1.90;;;;;;;;;;5087728;28;20442;-84
2022/10/10 02:17:42;;;;;;;5.65;1.13;;;;;;;;;;5077745;28;20428;-84
2022/10/10 02:20:12;;;;;;;3.60;1.48;;;;;;;;;;5076347;28;20558;-84
2022/10/10 02:22:42;;;;;;;2.67;1.23;;;;;;;;;;5076338;28;20044;-84
2022/10/10 02:25:10;;;;;;;5.75;1.30;;;;;;;;;;5079837;28;20040;-84
2022/10/10 02:27:43;;;;;;;4.05;1.95;;;;;;;;;;5078728;28;20051;-84
2022/10/10 02:30:14;;;;;;;4.97;2.53;;;;;;;;;;5077289;28;20049;-84
2022/10/10 02:32:43;;;;;;;5.85;1.55;;;;;;;;;;5080044;28;20062;-83
2022/10/10 02:35:15;;;;;;;9.00;2.88;;;;;;;;;;5077263;28;20052;-83
2022/10/10 02:37:44;;;;;;;5.78;2.78;;;;;;;;;;5089585;28;20480;-83
2022/10/10 02:40:14;;;;;;;3.05;1.77;;;;;;;;;;5078787;28;20052;-84
2022/10/10 02:42:43;;;;;;;2.63;1.27;;;;;;;;;;5080296;28;20119;-83
2022/10/10 02:45:13;;;;;;;4.47;1.45;;;;;;;;;;5084886;28;20044;-84
2022/10/10 02:47:41;;;;;;;4.55;2.22;;;;;;;;;;5077460;28;20590;-84
2022/10/10 02:50:10;;;;;;;4.00;1.38;;;;;;;;;;5078813;28;20044;-84
2022/10/10 02:52:38;;;;;;;2.85;1.33;;;;;;;;;;5081536;28;20052;-84
2022/10/10 02:55:07;;;;;;;5.55;1.73;;;;;;;;;;5078346;28;20051;-84
2022/10/10 02:57:35;;;;;;;5.55;0.93;;;;;;;;;;5079424;28;20052;-84
2022/10/10 03:00:05;;;;;;;3.25;1.10;;;;;;;;;;5087515;28;20416;-84
2022/10/10 03:02:34;;;;;;;4.05;1.77;;;;;;;;;;5079785;28;20052;-85
2022/10/10 03:05:03;;;;;;;3.28;1.48;;;;;;;;;;5076392;28;20103;-85
2022/10/10 03:07:33;;;;;;;2.75;1.65;;;;;;;;;;5080835;28;20055;-84
2022/10/10 03:10:01;;;;;;;2.38;1.83;;;;;;;;;;5077519;28;20041;-84
2022/10/10 03:12:29;;;;;;;3.28;1.52;;;;;;;;;;5078223;28;20045;-84
2022/10/10 03:14:58;;;;;;;2.83;1.00;;;;;;;;;;5071906;28;20048;-85
2022/10/10 03:17:26;;;;;;;3.08;1.90;;;;;;;;;;5078152;28;20063;-84
2022/10/10 03:19:56;;;;;;;2.25;1.10;;;;;;;;;;5081866;28;20040;-84
2022/10/10 03:22:24;;;;;;;3.40;1.33;;;;;;;;;;5089826;28;20467;-84
2022/10/10 03:24:52;;;;;;;1.85;1.33;;;;;;;;;;5078626;28;20045;-84
2022/10/10 03:27:21;;;;;;;2.65;1.60;;;;;;;;;;5074197;28;20055;-84
2022/10/10 03:29:49;;;;;;;4.15;1.58;;;;;;;;;;5078737;28;20050;-84
2022/10/10 03:32:17;;;;;;;7.32;1.45;;;;;;;;;;5083638;28;20052;-84
2022/10/10 03:34:46;;;;;;;1.92;1.67;;;;;;;;;;5086441;28;20400;-83
2022/10/10 03:37:15;;;;;;;1.73;0.93;;;;;;;;;;5086262;28;20044;-84
2022/10/10 03:39:44;;;;;;;2.00;0.93;;;;;;;;;;5084952;28;20054;-84
2022/10/10 03:42:12;;;;;;;3.40;1.80;;;;;;;;;;5082420;28;20052;-84
2022/10/10 03:44:40;;;;;;;3.20;1.30;;;;;;;;;;5072793;28;20047;-84
2022/10/10 03:47:09;;;;;;;2.53;1.30;;;;;;;;;;5082351;28;20052;-84
2022/10/10 03:49:37;;;;;;;4.75;1.55;;;;;;;;;;5078359;28;20048;-84
2022/10/10 03:52:05;;;;;;;3.10;1.60;;;;;;;;;;5075005;28;20041;-84
2022/10/10 03:54:35;;;;;;;1.42;1.10;;;;;;;;;;5078032;28;20044;-84
2022/10/10 03:57:03;;;;;;;3.70;1.40;;;;;;;;;;5082225;28;20040;-84
2022/10/10 03:59:31;;;;;;;3.05;1.48;;;;;;;;;;5079333;28;20045;-83
2022/10/10 04:02:00;;;;;;;7.38;2.05;;;;;;;;;;5079249;28;20048;-83
2022/10/10 04:04:28;;;;;;;2.78;1.35;;;;;;;;;;5076584;28;20056;-83
2022/10/10 04:06:56;;;;;;;5.15;1.15;;;;;;;;;;5089957;28;20044;-82
2022/10/10 04:09:25;;;;;;;1.67;0.93;;;;;;;;;;5079007;28;20122;-83
2022/10/10 04:11:54;;;;;;;1.77;0.93;;;;;;;;;;5078820;28;20052;-83
2022/10/10 04:14:23;;;;;;;2.83;1.45;;;;;;;;;;5084143;28;20054;-83
2022/10/10 04:16:51;;;;;;;1.92;0.93;;;;;;;;;;5088210;28;20036;-83
2022/10/10 04:19:20;;;;;;;1.98;1.05;;;;;;;;;;5089687;28;20103;-83
2022/10/10 04:21:48;;;;;;;4.05;1.27;;;;;;;;;;5084859;28;20057;-83
2022/10/10 04:24:17;;;;;;;4.68;1.52;;;;;;;;;;5080990;28;20048;-83
2022/10/10 04:26:45;;;;;;;1.10;0.70;;;;;;;;;;5086663;28;20071;-83
2022/10/10 04:29:15;;;;;;;3.83;1.65;;;;;;;;;;5083696;28;20044;-83
2022/10/10 04:31:43;;;;;;;2.78;1.83;;;;;;;;;;5084991;28;20419;-83
2022/10/10 04:34:11;;;;;;;2.13;1.17;;;;;;;;;;5089589;28;20060;-83
2022/10/10 04:36:40;;;;;;;3.00;1.50;;;;;;;;;;5083298;28;20492;-82
2022/10/10 04:39:08;;;;;;;2.40;1.42;;;;;;;;;;5088580;28;20055;-83
2022/10/10 04:41:36;;;;;;;4.32;1.73;;;;;;;;;;5078757;28;20406;-83
2022/10/10 04:44:05;;;;;;;2.40;1.10;;;;;;;;;;5090244;28;20059;-84
2022/10/10 04:46:34;;;;;;;4.63;1.45;;;;;;;;;;5078962;28;20045;-84
2022/10/10 04:49:03;;;;;;;4.93;2.05;;;;;;;;;;5085966;28;20072;-83
2022/10/10 04:51:31;;;;;;;4.43;1.95;;;;;;;;;;5091780;28;20066;-84
2022/10/10 04:54:00;;;;;;;4.55;1.85;;;;;;;;;;5079355;28;20492;-84
2022/10/10 04:56:28;;;;;;;2.35;1.20;;;;;;;;;;5079000;28;20057;-84
2022/10/10 04:58:56;;;;;;;2.95;1.67;;;;;;;;;;5077286;28;20046;-83
2022/10/10 05:01:25;;;;;;;1.25;0.90;;;;;;;;;;5082682;28;20052;-83
2022/10/10 05:03:56;;;;;;;2.47;1.40;;;;;;;;;;5081287;28;20071;-80
2022/10/10 05:06:24;;;;;;;3.60;1.60;;;;;;;;;;5083690;28;20127;-84
2022/10/10 05:08:52;;;;;;;2.40;1.42;;;;;;;;;;5084480;28;20050;-86
2022/10/10 05:11:21;;;;;;;2.50;1.00;;;;;;;;;;5078406;28;20047;-85
2022/10/10 05:13:49;;;;;;;4.22;1.77;;;;;;;;;;5082593;28;20051;-84
2022/10/10 05:16:18;;;;;;;2.58;1.40;;;;;;;;;;5079203;28;20047;-84
2022/10/10 05:18:46;;;;;;;2.10;0.98;;;;;;;;;;5085046;28;20075;-80
2022/10/10 05:21:15;;;;;;;1.00;0.70;;;;;;;;;;5082454;28;20044;-84
2022/10/10 05:23:44;;;;;;;3.15;1.52;;;;;;;;;;5077210;28;20071;-84
2022/10/10 05:26:12;;;;;;;3.65;1.88;;;;;;;;;;5079781;28;20056;-83
2022/10/10 05:28:41;;;;;;;6.38;1.55;;;;;;;;;;5071920;28;20038;-82
2022/10/10 05:31:10;;;;;;;4.07;1.98;;;;;;;;;;5080952;28;20459;-84
2022/10/10 05:33:38;;;;;;;5.18;1.80;;;;;;;;;;5074769;28;20696;-84
2022/10/10 05:36:09;;;;;;;8.40;1.10;;;;;;;;;;5080115;28;20105;-84
2022/10/10 05:38:39;;;;;;;3.90;2.50;;;;;;;;;;5075738;28;20052;-84
2022/10/10 05:41:08;;;;;;;3.40;1.35;;;;;;;;;;5072749;28;20045;-84
2022/10/10 05:43:36;;;;;;;2.75;1.27;;;;;;;;;;5082300;28;20047;-83
2022/10/10 05:46:05;;;;;;;4.55;1.95;;;;;;;;;;5081795;28;20066;-83
2022/10/10 05:48:33;;;;;;;3.30;1.55;;;;;;;;;;5075218;28;20405;-84
2022/10/10 05:51:02;;;;;;;4.00;1.40;;;;;;;;;;5084382;28;20048;-84
2022/10/10 05:53:30;;;;;;;4.38;1.50;;;;;;;;;;5091071;28;20127;-84
2022/10/10 05:56:00;;;;;;;4.80;1.73;;;;;;;;;;5086853;28;20522;-84
2022/10/10 05:58:29;;;;;;;7.20;1.38;;;;;;;;;;5076551;28;20118;-83
2022/10/10 06:01:02;;;;;;;2.53;1.85;;;;;;;;;;5079348;28;20048;-84
2022/10/10 06:03:30;;;;;;;4.07;1.42;;;;;;;;;;5086216;28;20047;-84
2022/10/10 06:05:59;;;;;;;2.50;1.10;;;;;;;;;;5076884;28;20495;-84
2022/10/10 06:08:30;;;;;;;2.90;1.25;;;;;;;;;;5083366;28;20048;-84
2022/10/10 06:11:03;;;;;;;2.20;1.23;;;;;;;;;;5076586;28;20041;-83
2022/10/10 06:13:31;;;;;;;5.60;1.75;;;;;;;;;;5078612;28;20131;-84
2022/10/10 06:15:59;;;;;;;3.80;1.80;;;;;;;;;;5075572;28;20040;-83
2022/10/10 06:18:28;;;;;;;3.58;1.40;;;;;;;;;;5074020;28;20051;-83
2022/10/10 06:20:56;;;;;;;8.98;2.33;;;;;;;;;;5076557;28;20055;-84
2022/10/10 06:23:24;;;;;;;1.58;1.05;;;;;;;;;;5079546;28;20051;-84
2022/10/10 06:25:53;;;;;;;3.25;1.40;;;;;;;;;;5077114;28;20127;-84
2022/10/10 06:28:22;;;;;;;3.20;1.00;;;;;;;;;;5088370;28;20051;-84
2022/10/10 06:30:51;;;;;;;2.33;1.33;;;;;;;;;;5078423;28;20047;-83
2022/10/10 06:33:20;;;;;;;4.38;1.73;;;;;;;;;;5074774;28;20122;-84
2022/10/10 06:35:49;;;;;;;2.40;1.17;;;;;;;;;;5084228;28;20131;-84
2022/10/10 06:38:18;;;;;;;2.88;1.02;;;;;;;;;;5075744;28;20048;-85
2022/10/10 06:40:46;;;;;;;4.18;1.63;;;;;;;;;;5077750;28;20044;-84
2022/10/10 06:43:15;;;;;;;3.78;1.80;;;;;;;;;;5076819;28;20054;-85
2022/10/10 06:45:46;;;;;;;3.90;1.60;;;;;;;;;;5075577;28;20048;-85
2022/10/10 06:48:15;;;;;;;1.65;0.63;;;;;;;;;;5071807;28;20048;-86
2022/10/10 06:50:44;;;;;;;2.67;1.17;;;;;;;;;;5080289;28;20101;-84
2022/10/10 06:53:12;;;;;;;1.77;1.10;;;;;;;;;;5085676;28;20052;-85
2022/10/10 06:55:46;;;;;;;2.47;1.20;;;;;;;;;;5073699;28;20048;-86
2022/10/10 06:58:15;;;;;;;3.08;1.10;;;;;;;;;;5076406;28;20053;-85
2022/10/10 07:00:50;;;;;;;0.75;0.52;;;;;;;;;;5070943;28;20510;-87
2022/10/10 07:03:19;;;;;;;1.00;0.70;;;;;;;;;;5071051;28;20091;-85
2022/10/10 07:05:51;;;;;;;1.38;0.98;;;;;;;;;;5071842;28;20056;-81
2022/10/10 07:08:20;;;;;;;2.08;0.50;;;;;;;;;;5074738;28;20044;-87
2022/10/10 07:10:48;;;;;;;1.83;0.80;;;;;;;;;;5080268;28;20131;-85
2022/10/10 07:13:17;;;;;;;0.82;0.55;;;;;;;;;;5083454;28;20048;-84
2022/10/10 07:15:45;;;;;;;1.77;0.90;;;;;;;;;;5072412;28;20051;-84
2022/10/10 07:18:17;;;;;;;1.70;0.68;;;;;;;;;;5086668;28;20507;-83
2022/10/10 07:20:46;;;;;;;2.90;1.10;;;;;;;;;;5075412;28;20531;-84
2022/10/10 07:23:14;;;;;;;2.75;1.40;;;;;;;;;;5072598;28;20053;-84
2022/10/10 07:25:43;;;;;;;0.55;0.40;;;;;;;;;;5073465;28;20101;-84
2022/10/10 07:28:12;;;;;;;1.80;0.90;;;;;;;;;;5075354;28;20185;-84
2022/10/10 07:30:42;;;;;;;1.02;0.40;;;;;;;;;;5083827;28;20131;-84
2022/10/10 07:33:33;;;;;;;1.05;0.80;;;;;;;;;;5075051;28;20040;-84
2022/10/10 07:36:03;;;;;;;2.13;0.70;;;;;;;;;;5083373;28;20140;-84
2022/10/10 07:38:32;;;;;;;1.67;0.50;;;;;;;;;;5090745;28;20052;-85
2022/10/10 07:41:00;;;;;;;3.05;1.10;;;;;;;;;;5073406;28;20049;-84
2022/10/10 07:43:29;;;;;;;4.40;1.20;;;;;;;;;;5082620;28;20083;-84
2022/10/10 07:45:58;;;;;;;1.13;1.00;;;;;;;;;;5086747;28;20056;-85
2022/10/10 07:48:31;;;;;;;2.67;0.75;;;;;;;;;;5088909;28;20052;-85
2022/10/10 07:51:00;;;;;;;4.20;0.75;;;;;;;;;;5080449;28;20110;-84
2022/10/10 07:53:30;;;;;;;2.55;0.77;;;;;;;;;;5084941;28;20044;-84
2022/10/10 07:55:58;;;;;;;1.17;0.80;;;;;;;;;;5085028;28;20078;-84
2022/10/10 07:58:27;;;;;;;2.50;1.35;;;;;;;;;;5083779;28;20048;-84
2022/10/10 08:01:02;;;;;;;0.60;0.55;;;;;;;;;;5077831;28;20118;-84
2022/10/10 08:03:33;;;;;;;1.70;0.88;;;;;;;;;;5076108;28;21265;-84
2022/10/10 08:06:04;;;;;;;1.73;0.77;;;;;;;;;;5090057;28;21546;-84
2022/10/10 08:08:34;;;;;;;2.67;1.08;;;;;;;;;;5083105;28;20051;-84
2022/10/10 08:11:12;;;;;;;1.00;0.70;;;;;;;;;;5074399;28;20056;-84
2022/10/10 08:13:41;;;;;;;2.45;1.02;;;;;;;;;;5084798;28;20109;-84
2022/10/10 08:16:10;;;;;;;1.30;0.80;;;;;;;;;;5080815;28;20105;-84
2022/10/10 08:18:39;;;;;;;1.35;1.00;;;;;;;;;;5081464;28;20040;-85
2022/10/10 08:21:23;;;;;;;0.93;0.70;;;;;;;;;;5086867;28;20502;-84
2022/10/10 08:23:53;;;;;;;4.18;0.60;;;;;;;;;;5085696;28;20109;-84
2022/10/10 08:26:23;;;;;;;2.92;1.23;;;;;;;;;;5082632;28;20456;-84
2022/10/10 08:28:51;;;;;;;3.88;0.65;;;;;;;;;;5077074;28;20044;-85
2022/10/10 08:31:21;;;;;;;0.93;0.70;;;;;;;;;;5074325;28;20048;-84
2022/10/10 08:33:50;;;;;;;1.02;0.65;;;;;;;;;;5081206;28;20059;-84
2022/10/10 08:36:19;;;;;;;0.90;0.80;;;;;;;;;;5076506;28;20064;-84
2022/10/10 08:38:48;;;;;;;4.50;0.95;;;;;;;;;;5088241;28;20131;-84
2022/10/10 08:41:21;;;;;;;1.20;0.80;;;;;;;;;;5086255;28;20048;-85
2022/10/10 08:43:51;;;;;;;1.95;0.55;;;;;;;;;;5077916;28;20047;-83
2022/10/10 08:46:23;;;;;;;1.45;0.73;;;;;;;;;;5079558;28;20093;-85
2022/10/10 08:48:54;;;;;;;4.57;0.63;;;;;;;;;;5086488;28;20040;-84
2022/10/10 08:51:26;;;;;;;1.00;0.47;;;;;;;;;;5076186;28;20143;-83
2022/10/10 08:53:57;;;;;;;1.08;0.70;;;;;;;;;;5083244;28;20064;-84
2022/10/10 08:56:30;;;;;;;0.60;0.50;;;;;;;;;;5083734;28;20062;-82
2022/10/10 08:59:01;;;;;;;1.17;0.50;;;;;;;;;;5086015;28;20044;-84
2022/10/10 09:01:33;;;;;;;1.90;0.50;;;;;;;;;;5077656;28;20048;-85
2022/10/10 09:04:02;;;;;;;1.30;0.82;;;;;;;;;;5083916;28;20057;-84
2022/10/10 09:06:37;;;;;;;0.50;0.50;;;;;;;;;;5074380;28;20102;-84
2022/10/10 09:09:05;;;;;;;;;;;;;;;;;;5080776;28;20048;-84
2022/10/10 09:11:43;;;;;;;0.73;0.38;;;;;;;;;;5078998;28;20023;-84
2022/10/10 09:14:17;;;;;;;0.70;0.40;;;;;;;;;;5080534;28;20084;-84
2022/10/10 09:16:48;;;;;;;2.30;0.38;;;;;;;;;;5084250;28;20052;-84
2022/10/10 09:19:25;;;;;;;1.83;1.38;;;;;;;;;;5077490;28;20040;-84
2022/10/10 09:21:56;;;;;;;0.55;0.50;;;;;;;;;;5075333;28;20049;-84
2022/10/10 09:24:27;;;;;;;5.25;0.80;;;;;;;;;;5084504;28;20139;-84
2022/10/10 09:26:58;;;;;;;2.47;0.55;;;;;;;;;;5080462;28;20056;-83
2022/10/10 09:29:29;;;;;;;2.20;1.00;;;;;;;;;;5074176;28;20048;-84
2022/10/10 09:31:59;;;;;;;1.90;0.82;;;;;;;;;;5077225;28;20067;-85
2022/10/10 09:34:32;;;;;;;0.63;0.40;;;;;;;;;;5086070;28;20044;-84
2022/10/10 09:37:01;;;;;;;0.90;0.60;;;;;;;;;;5083056;28;20075;-84
2022/10/10 09:39:33;;;;;;;1.45;0.50;;;;;;;;;;5074386;28;20523;-84
2022/10/10 09:42:10;;;;;;;0.75;0.60;;;;;;;;;;5082846;28;20044;-84
2022/10/10 09:44:39;;;;;;;1.90;0.60;;;;;;;;;;5083146;28;20041;-84
2022/10/10 09:47:21;;;;;;;0.98;0.63;;;;;;;;;;5080438;28;20055;-84
2022/10/10 09:49:50;;;;;;;3.05;0.50;;;;;;;;;;5078452;28;20036;-84
2022/10/10 09:52:25;;;;;;;1.08;0.65;;;;;;;;;;5077235;28;20101;-84
2022/10/10 09:54:56;;;;;;;1.17;0.75;;;;;;;;;;5081556;28;20480;-84
2022/10/10 09:57:29;;;;;;;1.30;0.70;;;;;;;;;;5072312;28;20050;-84
2022/10/10 09:59:57;;;;;;;3.08;0.45;;;;;;;;;;5081551;28;20048;-84
2022/10/10 10:02:31;;;;;;;2.20;0.70;;;;;;;;;;5081656;28;20378;-83
2022/10/10 10:05:00;;;;;;;0.75;0.43;;;;;;;;;;5090299;28;20091;-84
2022/10/10 10:07:30;;;;;;;2.13;0.45;;;;;;;;;;5082927;28;20048;-83
2022/10/10 10:10:00;;;;;;;0.95;0.85;;;;;;;;;;5075423;28;20103;-85
2022/10/10 10:12:32;;;;;;;0.50;0.40;;;;;;;;;;5085419;28;20051;-83
2022/10/10 10:15:02;;;;;;;0.52;0.50;;;;;;;;;;5076318;28;20048;-85
2022/10/10 10:17:31;;;;;;;2.35;0.43;;;;;;;;;;5082906;28;20052;-84
2022/10/10 10:19:59;;;;;;;3.05;0.57;;;;;;;;;;5081560;28;20037;-85
2022/10/10 10:22:32;;;;;;;0.95;0.50;;;;;;;;;;5075492;28;20048;-84
2022/10/10 10:25:02;;;;;;;;;;;;;;;;;;5085567;28;20044;-84
2022/10/10 10:27:32;;;;;;;0.57;0.50;;;;;;;;;;5078571;28;19934;-84
2022/10/10 10:30:01;;;;;;;7.28;0.65;;;;;;;;;;5084193;28;20557;-84
2022/10/10 10:32:40;;;;;;;2.38;0.52;;;;;;;;;;5089571;28;20756;-85
2022/10/10 10:35:12;;;;;;;4.30;0.90;;;;;;;;;;5079020;28;20058;-84
2022/10/10 10:37:45;;;;;;;1.05;0.60;;;;;;;;;;5074735;28;20059;-85
2022/10/10 10:40:20;;;;;;;1.52;0.77;;;;;;;;;;5080812;28;20059;-84
2022/10/10 10:43:06;;;;;;;1.63;0.50;;;;;;;;;;5079037;28;20037;-84
2022/10/10 10:45:38;;;;;;;2.08;0.68;;;;;;;;;;5071345;28;20131;-84
2022/10/10 10:48:10;;;;;;;1.17;0.43;;;;;;;;;;5070855;28;20047;-84
2022/10/10 10:50:45;;;;;;;2.28;1.13;;;;;;;;;;5076812;28;20139;-84
2022/10/10 10:53:17;;;;;;;1.98;0.47;;;;;;;;;;5083934;28;20054;-84
2022/10/10 10:55:47;;;;;;;1.13;1.08;;;;;;;;;;5076897;28;20482;-84
2022/10/10 10:58:35;;;;;;;1.23;0.50;;;;;;;;;;5084635;28;20050;-83
2022/10/10 11:01:26;;;;;;;1.05;0.40;;;;;;;;;;5073930;28;20052;-84
2022/10/10 11:04:22;;;;;;;1.17;0.50;;;;;;;;;;5086811;28;20048;-84
2022/10/10 11:07:14;;;;;;;1.60;0.73;;;;;;;;;;5077702;28;20056;-84
2022/10/10 11:09:51;;;;;;;0.70;0.50;;;;;;;;;;5083450;28;20052;-84
2022/10/10 11:12:24;;;;;;;2.17;0.90;;;;;;;;;;5075484;28;20041;-84
2022/10/10 11:14:55;;;;;;;1.15;0.40;;;;;;;;;;5091113;28;20048;-84
2022/10/10 11:17:27;;;;;;;0.47;0.30;;;;;;;;;;5074755;28;20051;-83
2022/10/10 11:19:57;;;;;;;1.17;0.60;;;;;;;;;;5075611;28;20044;-83
2022/10/10 11:22:26;;;;;;;0.77;0.57;;;;;;;;;;5074699;28;20057;-84
2022/10/10 11:24:58;;;;;;;0.55;0.50;;;;;;;;;;5073901;28;20349;-84
2022/10/10 11:27:30;;;;;;;0.70;0.65;;;;;;;;;;5077484;28;20157;-84
2022/10/10 11:30:04;;;;;;;0.63;0.38;;;;;;;;;;5075539;28;20050;-84
2022/10/10 11:32:36;;;;;;;0.90;0.73;;;;;;;;;;5094364;28;20047;-84
2022/10/10 11:35:13;;;;;;;2.88;0.60;;;;;;;;;;5090877;28;20407;-85
2022/10/10 11:37:43;;;;;;;0.30;0.30;;;;;;;;;;5074808;28;20048;-83
2022/10/10 11:40:19;;;;;;;1.80;0.60;;;;;;;;;;5082420;28;20482;-85
2022/10/10 11:42:50;;;;;;;0.47;0.47;;;;;;;;;;5079806;28;20166;-86
2022/10/10 11:45:21;;;;;;;3.58;0.55;;;;;;;;;;5073608;28;20487;-84
2022/10/10 11:47:55;;;;;;;0.17;0.17;;;;;;;;;;5081539;28;20548;-85
2022/10/10 11:50:27;;;;;;;0.50;0.43;;;;;;;;;;5076160;28;20048;-84
2022/10/10 11:52:59;;;;;;;0.52;0.40;;;;;;;;;;5080212;28;20136;-85
2022/10/10 11:55:32;;;;;;;1.60;0.50;;;;;;;;;;5081658;28;20098;-83
2022/10/10 11:58:18;;;;;;;0.38;0.38;;;;;;;;;;5076623;28;20331;-85
2022/10/10 12:00:48;;;;;;;1.08;0.20;;;;;;;;;;5076865;28;20052;-83
2022/10/10 12:03:18;;;;;;;0.52;0.47;;;;;;;;;;5085509;28;20131;-83
2022/10/10 12:05:49;;;;;;;1.85;0.40;;;;;;;;;;5079641;28;20505;-83
2022/10/10 12:08:19;;;;;;;0.63;0.60;;;;;;;;;;5080750;28;20044;-83
2022/10/10 12:10:50;;;;;;;2.28;0.82;;;;;;;;;;5080011;28;20141;-83
2022/10/10 12:13:27;;;;;;;1.05;0.40;;;;;;;;;;5076989;28;20040;-83
2022/10/10 12:15:57;;;;;;;1.08;0.40;;;;;;;;;;5074016;28;20131;-84
2022/10/10 12:18:28;;;;;;;0.65;0.65;;;;;;;;;;5075060;28;20052;-84
2022/10/10 12:21:08;;;;;;;1.50;0.60;;;;;;;;;;5081394;28;20052;-84
2022/10/10 12:23:36;;;;;;;1.30;0.50;;;;;;;;;;5083548;28;20048;-83
2022/10/10 12:26:05;;;;;;;0.30;0.30;;;;;;;;;;5086798;28;20048;-82
2022/10/10 12:28:38;;;;;;;0.30;0.30;;;;;;;;;;5083688;28;20075;-84
2022/10/10 12:31:20;;;;;;;0.40;0.40;;;;;;;;;;5078916;28;20408;-84
2022/10/10 12:34:03;;;;;;;2.05;0.45;;;;;;;;;;5076983;28;20491;-84
2022/10/10 12:37:05;;;;;;;0.28;0.28;;;;;;;;;;5087464;28;20105;-84
2022/10/10 12:39:39;;;;;;;0.60;0.40;;;;;;;;;;5078342;28;20127;-84
2022/10/10 12:42:27;;;;;;;0.35;0.35;;;;;;;;;;5082110;28;20052;-84
2022/10/10 12:44:55;;;;;;;0.98;0.73;;;;;;;;;;5075733;28;20063;-84
2022/10/10 12:47:36;;;;;;;0.88;0.60;;;;;;;;;;5076820;28;20048;-84
2022/10/10 12:50:28;;;;;;;0.82;0.35;;;;;;;;;;5076331;28;20435;-84
2022/10/10 12:52:58;;;;;;;0.73;0.38;;;;;;;;;;5077201;28;20513;-83
2022/10/10 12:55:27;;;;;;;0.63;0.40;;;;;;;;;;5073657;28;20048;-84
2022/10/10 12:57:58;;;;;;;1.25;0.43;;;;;;;;;;5077290;28;20044;-85
2022/10/10 13:00:27;;;;;;;1.73;0.40;;;;;;;;;;5077224;28;20048;-84
2022/10/10 13:02:57;;;;;;;1.40;0.60;;;;;;;;;;5083743;28;20048;-85
2022/10/10 13:05:30;;;;;;;1.67;0.70;;;;;;;;;;5074958;28;20084;-84
2022/10/10 13:08:00;;;;;;;3.45;0.52;;;;;;;;;;5082994;28;20040;-85
2022/10/10 13:10:30;;;;;;;1.27;0.63;;;;;;;;;;5082517;28;20101;-83
2022/10/10 13:13:00;;;;;;;0.77;0.60;;;;;;;;;;5075838;28;20044;-84
2022/10/10 13:15:29;;;;;;;0.70;0.50;;;;;;;;;;5072125;28;20060;-84
2022/10/10 13:17:58;;;;;;;0.88;0.52;;;;;;;;;;5081464;28;20047;-84
2022/10/10 13:20:32;;;;;;;1.13;0.38;;;;;;;;;;5084039;28;20476;-84
2022/10/10 13:23:04;;;;;;;1.45;0.47;;;;;;;;;;5082501;28;20051;-84
2022/10/10 13:25:33;;;;;;;0.73;0.30;;;;;;;;;;5091582;28;20055;-85
2022/10/10 13:28:02;;;;;;;3.40;0.50;;;;;;;;;;5075776;28;20096;-84
2022/10/10 13:30:31;;;;;;;3.75;0.50;;;;;;;;;;5081465;28;20080;-84
2022/10/10 13:33:00;;;;;;;0.70;0.40;;;;;;;;;;5073440;28;20048;-84
2022/10/10 13:35:31;;;;;;;0.70;0.70;;;;;;;;;;5079397;28;20056;-84
2022/10/10 13:38:00;;;;;;;0.57;0.38;;;;;;;;;;5073505;28;20047;-84
2022/10/10 13:40:29;;;;;;;1.15;0.40;;;;;;;;;;5076835;28;20127;-84
2022/10/10 13:42:57;;;;;;;1.30;0.40;;;;;;;;;;5085960;28;20091;-84
2022/10/10 13:45:31;;;;;;;1.95;0.50;;;;;;;;;;5084181;28;20039;-84
2022/10/10 13:48:11;;;;;;;0.50;0.35;;;;;;;;;;5074493;28;20057;-84
2022/10/10 13:50:54;;;;;;;0.38;0.38;;;;;;;;;;5079390;28;20099;-85
2022/10/10 13:53:24;;;;;;;5.57;0.50;;;;;;;;;;5078275;28;20105;-85
2022/10/10 13:55:58;;;;;;;0.73;0.25;;;;;;;;;;5076246;28;20496;-84
2022/10/10 13:58:27;;;;;;;0.55;0.47;;;;;;;;;;5082157;28;20054;-84
2022/10/10 14:00:56;;;;;;;3.13;0.60;;;;;;;;;;5077395;28;20468;-84
2022/10/10 14:03:25;;;;;;;0.45;0.35;;;;;;;;;;5076498;28;20131;-84
2022/10/10 14:05:56;;;;;;;1.15;0.38;;;;;;;;;;5078137;28;20059;-84
2022/10/10 14:08:27;;;;;;;0.32;0.32;;;;;;;;;;5072753;28;20117;-84
2022/10/10 14:10:57;;;;;;;0.30;0.30;;;;;;;;;;5079821;28;20072;-83
2022/10/10 14:13:27;;;;;;;0.82;0.35;;;;;;;;;;5085232;28;20043;-83
2022/10/10 14:16:09;;;;;;;0.85;0.40;;;;;;;;;;5074575;28;20393;-83
2022/10/10 14:18:38;;;;;;;0.20;0.20;;;;;;;;;;5076812;28;20567;-84
2022/10/10 14:21:08;;;;;;;1.15;0.40;;;;;;;;;;5070424;28;20131;-84
2022/10/10 14:23:37;;;;;;;0.77;0.40;;;;;;;;;;5071203;28;20087;-84
2022/10/10 14:26:06;;;;;;;2.00;0.55;;;;;;;;;;5081353;28;20102;-83
2022/10/10 14:28:37;;;;;;;1.05;0.68;;;;;;;;;;5079859;28;20055;-84
2022/10/10 14:31:06;;;;;;;0.73;0.35;;;;;;;;;;5078018;28;20097;-84
2022/10/10 14:33:34;;;;;;;0.28;0.22;;;;;;;;;;5077981;28;20075;-84
2022/10/10 14:36:03;;;;;;;2.20;0.50;;;;;;;;;;5072753;28;20044;-84
2022/10/10 14:38:33;;;;;;;0.40;0.40;;;;;;;;;;5081619;28;20496;-84
2022/10/10 14:41:02;;;;;;;0.40;0.40;;;;;;;;;;5076465;28;20050;-84
2022/10/10 14:43:30;;;;;;;3.80;0.47;;;;;;;;;;5077800;28;20047;-84
2022/10/10 14:46:00;;;;;;;0.22;0.22;;;;;;;;;;5078220;28;20408;-83
2022/10/10 14:48:29;;;;;;;1.75;0.85;;;;;;;;;;5077441;28;20082;-84
2022/10/10 14:50:57;;;;;;;1.98;0.77;;;;;;;;;;5088073;28;20051;-84
2022/10/10 14:53:26;;;;;;;0.40;0.30;;;;;;;;;;5075194;28;20044;-84
2022/10/10 14:55:56;;;;;;;1.08;0.63;;;;;;;;;;5083536;28;20044;-84
2022/10/10 14:58:25;;;;;;;0.65;0.40;;;;;;;;;;5082719;28;20052;-83
2022/10/10 15:00:54;;;;;;;0.68;0.45;;;;;;;;;;5072268;28;20522;-84
2022/10/10 15:03:22;;;;;;;0.70;0.47;;;;;;;;;;5079613;28;20090;-84
2022/10/10 15:05:51;;;;;;;6.00;0.40;;;;;;;;;;5080776;28;20052;-83